Time;durP1;ratioP1;P1;durP2;ratioP2;P2;SDS_P1;SDS_P2;PMS_P1;PMS_P2;Temp;Humidity;BMP_temperature;BMP_pressure;BME280_temperature;BME280_humidity;BME280_pressure;Samples;Min_cycle;Max_cycle;Signal;HPM_P1;HPM_P2
2024/04/13 00:02:00;;;;;;;4.37;2.67;;;12.80;99.90;;;;;;4477588;26;20099;-57
2024/04/13 00:04:02;;;;;;;4.67;2.67;;;12.80;99.90;;;;;;4477089;26;20007;-58
2024/04/13 00:06:04;;;;;;;6.73;2.60;;;12.80;99.90;;;;;;4478006;26;20003;-57
2024/04/13 00:08:05;;;;;;;7.67;2.93;;;12.80;99.90;;;;;;4477941;26;20073;-58
2024/04/13 00:10:07;;;;;;;7.07;2.97;;;12.70;99.90;;;;;;4478443;26;20011;-57
2024/04/13 00:12:08;;;;;;;4.10;2.23;;;12.70;99.90;;;;;;4477364;26;20098;-57
2024/04/13 00:14:09;;;;;;;6.70;2.43;;;12.70;99.90;;;;;;4478390;26;20007;-56
2024/04/13 00:16:10;;;;;;;4.20;2.30;;;12.60;99.90;;;;;;4477859;26;20045;-56
2024/04/13 00:18:12;;;;;;;6.83;2.90;;;12.70;99.90;;;;;;4478956;26;20452;-56
2024/04/13 00:20:14;;;;;;;5.23;2.87;;;12.70;99.90;;;;;;4477904;26;20388;-53
2024/04/13 00:22:17;;;;;;;3.63;2.40;;;12.70;99.90;;;;;;4478767;26;20015;-53
2024/04/13 00:24:18;;;;;;;4.17;2.20;;;12.70;99.90;;;;;;4476525;26;20076;-53
2024/04/13 00:26:20;;;;;;;3.33;2.77;;;12.70;99.90;;;;;;4477890;26;20301;-53
2024/04/13 00:28:21;;;;;;;4.40;2.27;;;12.70;99.90;;;;;;4477309;26;20087;-50
2024/04/13 00:30:23;;;;;;;3.63;2.13;;;12.70;99.90;;;;;;4477803;26;20007;-51
2024/04/13 00:32:25;;;;;;;5.23;2.90;;;12.70;99.90;;;;;;4477971;26;20076;-56
2024/04/13 00:34:28;;;;;;;3.90;2.33;;;12.70;99.90;;;;;;4478490;26;20443;-56
2024/04/13 00:36:29;;;;;;;3.60;2.00;;;12.70;99.90;;;;;;4477666;26;20413;-56
2024/04/13 00:38:30;;;;;;;3.80;2.17;;;12.70;99.90;;;;;;4477687;26;20361;-56
2024/04/13 00:40:32;;;;;;;4.33;2.80;;;12.70;99.90;;;;;;4478291;26;19999;-54
2024/04/13 00:42:33;;;;;;;6.50;2.33;;;12.70;99.90;;;;;;4476848;26;20007;-56
2024/04/13 00:44:34;;;;;;;3.23;2.00;;;12.70;99.90;;;;;;4478104;26;20019;-56
2024/04/13 00:46:39;;;;;;;3.97;2.30;;;12.70;99.90;;;;;;4476954;26;20015;-52
2024/04/13 00:48:42;;;;;;;5.20;3.00;;;12.70;99.90;;;;;;4478727;26;20412;-59
2024/04/13 00:50:46;;;;;;;6.37;2.30;;;12.70;99.90;;;;;;4476913;26;20405;-56
2024/04/13 00:52:48;;;;;;;3.97;2.03;;;12.70;99.90;;;;;;4480959;26;20045;-57
2024/04/13 00:54:55;;;;;;;5.87;2.60;;;12.70;99.90;;;;;;4479980;26;20003;-56
2024/04/13 00:56:58;;;;;;;5.97;3.40;;;12.70;99.90;;;;;;4481255;26;20072;-56
2024/04/13 00:59:00;;;;;;;6.73;2.53;;;12.60;99.90;;;;;;4479799;26;20004;-55
2024/04/13 01:01:02;;;;;;;6.87;3.30;;;12.60;99.90;;;;;;4481388;26;19996;-57
2024/04/13 01:03:04;;;;;;;5.03;2.73;;;12.50;99.90;;;;;;4479597;26;20071;-53
2024/04/13 01:05:07;;;;;;;8.37;3.13;;;12.40;99.90;;;;;;4480147;26;20011;-56
2024/04/13 01:07:10;;;;;;;4.87;2.73;;;12.30;99.90;;;;;;4479528;26;20119;-53
2024/04/13 01:09:14;;;;;;;5.50;2.43;;;12.30;99.90;;;;;;4479625;26;20011;-55
2024/04/13 01:11:15;;;;;;;3.30;2.57;;;12.30;99.90;;;;;;4479969;26;20076;-59
2024/04/13 01:13:17;;;;;;;6.93;2.90;;;12.20;99.90;;;;;;4480425;26;20011;-59
2024/04/13 01:15:18;;;;;;;8.67;3.00;;;12.20;99.90;;;;;;4480426;26;20006;-55
2024/04/13 01:17:19;;;;;;;4.97;3.07;;;12.20;99.90;;;;;;4479645;26;20080;-56
2024/04/13 01:19:21;;;;;;;6.63;2.93;;;12.20;99.90;;;;;;4480437;26;20076;-56
2024/04/13 01:21:23;;;;;;;7.77;3.03;;;12.10;99.90;;;;;;4478119;26;20516;-57
2024/04/13 01:23:28;;;;;;;4.77;2.97;;;12.10;99.90;;;;;;4480062;26;20447;-57
2024/04/13 01:25:29;;;;;;;4.60;2.77;;;12.00;99.90;;;;;;4479473;26;20412;-55
2024/04/13 01:27:31;;;;;;;5.93;2.60;;;12.00;99.90;;;;;;4479754;26;20010;-55
2024/04/13 01:29:32;;;;;;;3.63;2.20;;;12.00;99.90;;;;;;4479159;26;20439;-53
2024/04/13 01:31:35;;;;;;;3.47;2.53;;;11.90;99.90;;;;;;4480439;26;19996;-56
2024/04/13 01:33:37;;;;;;;3.00;1.97;;;12.00;99.90;;;;;;4474647;26;20077;-55
2024/04/13 01:35:38;;;;;;;3.90;1.93;;;12.00;99.90;;;;;;4479101;26;20004;-51
2024/04/13 01:37:41;;;;;;;3.47;2.07;;;12.10;99.90;;;;;;4479026;26;20007;-53
2024/04/13 01:39:42;;;;;;;4.83;1.87;;;12.20;99.90;;;;;;4481022;26;20003;-53
2024/04/13 01:41:50;;;;;;;3.77;2.03;;;12.20;99.90;;;;;;4479318;26;20080;-53
2024/04/13 01:43:51;;;;;;;3.87;2.83;;;12.20;99.90;;;;;;4480100;26;20071;-56
2024/04/13 01:45:52;;;;;;;5.93;2.23;;;12.20;99.90;;;;;;4480214;26;20465;-57
2024/04/13 01:47:53;;;;;;;3.57;2.53;;;12.20;99.90;;;;;;4479681;26;20064;-59
2024/04/13 01:49:55;;;;;;;4.80;2.73;;;12.20;99.90;;;;;;4478477;26;20004;-56
2024/04/13 01:51:56;;;;;;;4.60;2.60;;;12.10;99.90;;;;;;4476083;26;20455;-56
2024/04/13 01:53:58;;;;;;;5.53;2.50;;;12.10;99.90;;;;;;4476506;26;20007;-56
2024/04/13 01:55:59;;;;;;;3.63;2.30;;;12.00;99.90;;;;;;4474584;26;20056;-56
2024/04/13 01:58:01;;;;;;;3.67;1.97;;;12.00;99.90;;;;;;4476938;26;20019;-59
2024/04/13 02:00:02;;;;;;;5.73;2.33;;;12.00;99.90;;;;;;4475649;26;20007;-56
2024/04/13 02:02:04;;;;;;;9.27;2.50;;;11.90;99.90;;;;;;4477575;26;20403;-57
2024/04/13 02:04:06;;;;;;;6.17;2.27;;;11.90;99.90;;;;;;4474819;26;20091;-59
2024/04/13 02:06:08;;;;;;;6.57;2.63;;;11.90;99.90;;;;;;4479203;26;20081;-56
2024/04/13 02:08:10;;;;;;;4.20;2.60;;;11.90;99.90;;;;;;4475781;26;20187;-56
2024/04/13 02:10:11;;;;;;;4.70;2.30;;;11.80;99.90;;;;;;4477264;26;20080;-56
2024/04/13 02:12:14;;;;;;;3.30;2.20;;;11.80;99.90;;;;;;4475844;26;20441;-55
2024/04/13 02:14:15;;;;;;;9.27;3.27;;;11.80;99.90;;;;;;4476149;26;20401;-53
2024/04/13 02:16:16;;;;;;;5.87;2.67;;;11.80;99.90;;;;;;4475288;26;20011;-49
2024/04/13 02:18:17;;;;;;;6.10;2.97;;;11.70;99.90;;;;;;4478784;26;20023;-56
2024/04/13 02:20:19;;;;;;;5.67;3.13;;;11.70;99.90;;;;;;4477583;26;20079;-55
2024/04/13 02:22:20;;;;;;;3.87;2.20;;;11.70;99.90;;;;;;4477571;26;20003;-56
2024/04/13 02:24:21;;;;;;;5.87;2.07;;;11.70;99.90;;;;;;4477301;26;20003;-56
2024/04/13 02:26:23;;;;;;;5.10;2.20;;;11.70;99.90;;;;;;4475189;26;20100;-55
2024/04/13 02:28:24;;;;;;;6.23;2.37;;;11.80;99.90;;;;;;4478823;26;20003;-54
2024/04/13 02:30:25;;;;;;;4.73;2.33;;;11.80;99.90;;;;;;4479116;26;20068;-54
2024/04/13 02:32:26;;;;;;;4.27;2.17;;;11.80;99.90;;;;;;4479858;26;20007;-53
2024/04/13 02:34:28;;;;;;;5.37;2.60;;;11.90;99.90;;;;;;4477368;26;20015;-53
2024/04/13 02:36:29;;;;;;;4.27;2.13;;;11.90;99.90;;;;;;4479464;26;20007;-54
2024/04/13 02:38:32;;;;;;;5.47;2.60;;;11.90;99.90;;;;;;4475262;26;20071;-53
2024/04/13 02:40:33;;;;;;;4.83;1.90;;;11.80;99.90;;;;;;4476462;26;20007;-57
2024/04/13 02:42:38;;;;;;;5.47;2.10;;;11.80;99.90;;;;;;4475461;26;20015;-57
2024/04/13 02:44:39;;;;;;;6.50;2.30;;;11.70;99.90;;;;;;4475191;26;20136;-53
2024/04/13 02:46:41;;;;;;;5.43;2.57;;;11.70;99.90;;;;;;4475780;26;20676;-57
2024/04/13 02:48:43;;;;;;;4.77;2.53;;;11.60;99.90;;;;;;4478624;26;20397;-57
2024/04/13 02:50:44;;;;;;;3.83;2.30;;;11.60;99.90;;;;;;4478875;26;20385;-57
2024/04/13 02:52:47;;;;;;;5.50;2.60;;;11.60;99.90;;;;;;4479514;26;20008;-55
2024/04/13 02:54:48;;;;;;;3.43;2.03;;;11.60;99.90;;;;;;4479096;26;20361;-56
2024/04/13 02:56:50;;;;;;;3.63;2.23;;;11.50;99.90;;;;;;4475485;26;20079;-57
2024/04/13 02:58:51;;;;;;;4.90;2.50;;;11.50;99.90;;;;;;4476044;26;20349;-54
2024/04/13 03:00:57;;;;;;;5.07;2.60;;;11.50;99.90;;;;;;4475653;26;20075;-56
2024/04/13 03:02:58;;;;;;;3.57;2.10;;;11.40;99.90;;;;;;4477920;26;20060;-55
2024/04/13 03:05:03;;;;;;;5.27;2.63;;;11.40;99.90;;;;;;4478136;26;20011;-56
2024/04/13 03:07:05;;;;;;;4.40;2.77;;;11.40;99.90;;;;;;4478996;26;20003;-56
2024/04/13 03:09:07;;;;;;;7.03;2.60;;;11.30;99.90;;;;;;4477756;26;20011;-58
2024/04/13 03:11:09;;;;;;;6.37;2.70;;;11.30;99.90;;;;;;4479257;26;20007;-56
2024/04/13 03:13:11;;;;;;;4.97;3.03;;;11.30;99.90;;;;;;4478550;26;20011;-56
2024/04/13 03:15:12;;;;;;;7.73;3.03;;;11.20;99.90;;;;;;4479219;26;20007;-55
2024/04/13 03:17:13;;;;;;;5.57;2.90;;;11.20;99.90;;;;;;4478336;26;20416;-55
2024/04/13 03:19:18;;;;;;;6.63;4.00;;;11.10;99.90;;;;;;4479477;26;20516;-56
2024/04/13 03:21:19;;;;;;;6.80;2.93;;;11.00;99.90;;;;;;4478275;26;20009;-54
2024/04/13 03:23:21;;;;;;;3.90;2.47;;;11.00;99.90;;;;;;4479289;26;20389;-54
2024/04/13 03:25:22;;;;;;;4.97;3.30;;;11.00;99.90;;;;;;4477762;26;20011;-55
2024/04/13 03:27:23;;;;;;;5.20;2.87;;;11.00;99.90;;;;;;4477158;26;20000;-56
2024/04/13 03:29:24;;;;;;;6.43;2.80;;;10.90;99.90;;;;;;4475258;26;20064;-54
2024/04/13 03:31:26;;;;;;;4.17;2.50;;;10.90;99.90;;;;;;4474269;26;20016;-54
2024/04/13 03:33:27;;;;;;;4.70;2.57;;;10.90;99.90;;;;;;4475875;26;20372;-55
2024/04/13 03:35:38;;;;;;;4.63;2.43;;;10.90;99.90;;;;;;4473896;26;20015;-55
2024/04/13 03:37:39;;;;;;;6.97;3.00;;;10.90;99.90;;;;;;4478833;26;20076;-52
2024/04/13 03:39:40;;;;;;;5.47;2.70;;;10.90;99.90;;;;;;4478311;26;20068;-53
2024/04/13 03:41:42;;;;;;;10.87;3.23;;;10.90;99.90;;;;;;4476841;26;20011;-55
2024/04/13 03:43:43;;;;;;;6.43;2.70;;;10.90;99.90;;;;;;4474951;26;20134;-56
2024/04/13 03:45:53;;;;;;;5.43;2.63;;;11.00;99.90;;;;;;4475480;26;21939;-56
2024/04/13 03:47:55;;;;;;;5.10;2.50;;;10.90;99.90;;;;;;4474383;26;20023;-56
2024/04/13 03:49:56;;;;;;;6.93;2.50;;;11.00;99.90;;;;;;4474095;26;20459;-60
2024/04/13 03:51:57;;;;;;;6.60;2.83;;;11.00;99.90;;;;;;4473945;26;20004;-57
2024/04/13 03:53:58;;;;;;;6.57;2.63;;;10.90;99.90;;;;;;4476301;26;20061;-57
2024/04/13 03:56:01;;;;;;;5.20;2.40;;;11.00;99.90;;;;;;4476382;26;20100;-56
2024/04/13 03:58:02;;;;;;;2.53;1.87;;;11.00;99.90;;;;;;4478867;26;20071;-57
2024/04/13 04:00:07;;;;;;;3.80;1.83;;;11.00;99.90;;;;;;4478055;26;20385;-56
2024/04/13 04:02:08;;;;;;;3.50;2.57;;;11.10;99.90;;;;;;4478251;26;20049;-56
2024/04/13 04:04:10;;;;;;;7.67;2.27;;;11.30;99.90;;;;;;4477511;26;20072;-57
2024/04/13 04:06:11;;;;;;;6.97;1.97;;;11.40;99.90;;;;;;4477998;26;20041;-53
2024/04/13 04:08:12;;;;;;;6.63;2.20;;;11.50;99.90;;;;;;4478776;26;19996;-57
2024/04/13 04:10:14;;;;;;;2.97;1.83;;;11.70;99.90;;;;;;4477409;26;20060;-53
2024/04/13 04:12:15;;;;;;;4.70;1.83;;;11.80;99.90;;;;;;4477948;26;20007;-52
2024/04/13 04:14:16;;;;;;;5.67;2.20;;;12.00;99.90;;;;;;4477408;26;20105;-56
2024/04/13 04:16:17;;;;;;;5.87;2.07;;;12.30;99.90;;;;;;4478570;26;20080;-55
2024/04/13 04:18:20;;;;;;;4.43;2.23;;;12.50;99.90;;;;;;4476791;26;20072;-56
2024/04/13 04:20:21;;;;;;;2.50;1.97;;;12.60;99.90;;;;;;4476419;26;19996;-55
2024/04/13 04:22:23;;;;;;;2.50;1.57;;;12.80;99.90;;;;;;4476747;26;20011;-56
2024/04/13 04:24:24;;;;;;;2.23;1.60;;;13.30;99.90;;;;;;4475821;26;20011;-56
2024/04/13 04:26:25;;;;;;;1.93;1.67;;;13.70;99.90;;;;;;4475496;26;20095;-55
2024/04/13 04:28:27;;;;;;;2.93;1.97;;;14.10;99.90;;;;;;4478312;26;20468;-53
2024/04/13 04:30:28;;;;;;;5.97;2.07;;;14.50;99.90;;;;;;4477681;26;20012;-57
2024/04/13 04:32:29;;;;;;;2.00;1.80;;;15.00;99.90;;;;;;4477548;26;20007;-55
2024/04/13 04:34:30;;;;;;;7.47;2.20;;;15.50;99.90;;;;;;4477765;26;20071;-58
2024/04/13 04:36:32;;;;;;;3.40;1.50;;;15.90;99.90;;;;;;4476470;26;20080;-56
2024/04/13 04:38:33;;;;;;;3.17;1.88;;;16.40;99.90;;;;;;4477570;26;20509;-57
2024/04/13 04:40:38;;;;;;;3.55;1.60;;;16.90;99.90;;;;;;4475805;26;20456;-54
2024/04/13 04:42:39;;;;;;;12.13;5.32;;;17.20;99.10;;;;;;4473329;26;20501;-55
2024/04/13 04:44:40;;;;;;;5.38;2.83;;;17.30;98.70;;;;;;4476173;26;20068;-56
2024/04/13 04:46:42;;;;;;;8.15;3.33;;;17.50;98.50;;;;;;4478208;26;20183;-56
2024/04/13 04:48:48;;;;;;;17.08;7.72;;;17.70;98.00;;;;;;4476417;26;20068;-56
2024/04/13 04:50:57;;;;;;;9.80;4.40;;;18.00;97.40;;;;;;4476598;26;20071;-58
2024/04/13 04:53:00;;;;;;;20.85;8.90;;;18.00;96.10;;;;;;4473853;26;20011;-59
2024/04/13 04:55:04;;;;;;;25.38;8.65;;;18.30;96.50;;;;;;4456833;26;20057;-59
2024/04/13 04:57:05;;;;;;;9.75;3.88;;;18.60;96.30;;;;;;4476329;26;20011;-48
2024/04/13 04:59:06;;;;;;;9.80;3.17;;;18.90;95.70;;;;;;4477552;26;20015;-53
2024/04/13 05:01:08;;;;;;;2.90;1.27;;;19.60;95.20;;;;;;4474144;26;20084;-56
2024/04/13 05:03:09;;;;;;;3.58;2.03;;;19.90;94.20;;;;;;4475914;26;20049;-55
2024/04/13 05:05:10;;;;;;;2.20;1.75;;;20.00;93.70;;;;;;4476608;26;20861;-56
2024/04/13 05:07:11;;;;;;;5.80;1.60;;;20.30;93.30;;;;;;4476979;26;20071;-57
2024/04/13 05:09:13;;;;;;;3.80;1.60;;;20.70;92.80;;;;;;4476108;26;20068;-54
2024/04/13 05:11:14;;;;;;;3.15;1.85;;;21.00;92.10;;;;;;4477181;26;20011;-56
2024/04/13 05:13:16;;;;;;;6.25;1.75;;;21.20;91.90;;;;;;4477361;26;19996;-57
2024/04/13 05:15:17;;;;;;;5.90;1.55;;;21.30;91.60;;;;;;4475633;26;20012;-56
2024/04/13 05:17:18;;;;;;;4.57;1.60;;;21.70;90.90;;;;;;4477415;26;20439;-57
2024/04/13 05:19:19;;;;;;;3.42;2.00;;;21.80;90.60;;;;;;4476475;26;20076;-59
2024/04/13 05:21:21;;;;;;;3.78;2.25;;;22.00;90.30;;;;;;4477372;26;20003;-57
2024/04/13 05:23:22;;;;;;;5.03;2.00;;;22.20;89.70;;;;;;4476347;26;20332;-54
2024/04/13 05:25:23;;;;;;;6.30;1.90;;;22.30;88.90;;;;;;4477389;26;19995;-56
2024/04/13 05:27:25;;;;;;;3.92;1.50;;;22.60;88.40;;;;;;4475799;26;20057;-56
2024/04/13 05:29:26;;;;;;;4.93;1.50;;;22.90;87.30;;;;;;4476774;26;20440;-58
2024/04/13 05:31:27;;;;;;;2.72;1.77;;;23.10;86.50;;;;;;4475546;26;20007;-55
2024/04/13 05:33:28;;;;;;;3.90;1.73;;;23.10;85.70;;;;;;4477238;26;20007;-57
2024/04/13 05:35:30;;;;;;;6.35;1.40;;;23.50;84.80;;;;;;4476214;26;20369;-57
2024/04/13 05:37:31;;;;;;;2.20;1.55;;;23.70;84.10;;;;;;4477077;26;20007;-54
2024/04/13 05:39:33;;;;;;;1.88;1.20;;;24.10;83.40;;;;;;4479400;26;20423;-56
2024/04/13 05:41:34;;;;;;;4.03;1.27;;;24.50;82.30;;;;;;4479730;26;19999;-56
2024/04/13 05:43:35;;;;;;;4.57;1.17;;;24.90;81.30;;;;;;4480226;26;20072;-56
2024/04/13 05:45:36;;;;;;;2.95;1.60;;;25.10;80.30;;;;;;4479182;26;20047;-58
2024/04/13 05:47:38;;;;;;;3.97;1.77;;;25.20;79.80;;;;;;4479980;26;20076;-55
2024/04/13 05:49:39;;;;;;;5.22;1.98;;;25.20;79.10;;;;;;4479284;26;19995;-53
2024/04/13 05:51:40;;;;;;;4.03;1.70;;;25.10;78.80;;;;;;4480042;26;20447;-54
2024/04/13 05:53:42;;;;;;;3.95;1.70;;;25.10;78.30;;;;;;4478710;26;20011;-57
2024/04/13 05:55:44;;;;;;;2.40;1.70;;;24.80;78.40;;;;;;4480087;26;20068;-57
2024/04/13 05:57:45;;;;;;;6.28;1.30;;;24.80;78.30;;;;;;4479207;26;20011;-55
2024/04/13 05:59:46;;;;;;;4.85;1.90;;;24.60;77.90;;;;;;4479367;26;20331;-56
2024/04/13 06:01:48;;;;;;;4.65;1.73;;;24.40;77.90;;;;;;4478840;26;20451;-56
2024/04/13 06:03:49;;;;;;;4.90;1.50;;;24.10;78.50;;;;;;4479934;26;20048;-56
2024/04/13 06:05:50;;;;;;;2.53;1.45;;;24.60;78.40;;;;;;4479262;26;20007;-54
2024/04/13 06:07:51;;;;;;;6.57;1.60;;;25.00;77.60;;;;;;4479651;26;20385;-56
2024/04/13 06:09:53;;;;;;;3.88;1.60;;;25.40;76.90;;;;;;4479110;26;20083;-56
2024/04/13 06:11:54;;;;;;;3.58;1.60;;;25.20;76.60;;;;;;4478743;26;20068;-57
2024/04/13 06:13:55;;;;;;;4.78;1.55;;;25.30;76.60;;;;;;4479532;26;20091;-53
2024/04/13 06:15:56;;;;;;;5.43;2.05;;;24.70;76.60;;;;;;4478447;26;19999;-54
2024/04/13 06:17:57;;;;;;;2.03;1.48;;;24.30;77.10;;;;;;4478548;26;20366;-58
2024/04/13 06:19:59;;;;;;;3.60;1.33;;;23.90;77.70;;;;;;4478058;26;20510;-55
2024/04/13 06:22:00;;;;;;;4.85;1.67;;;23.90;77.70;;;;;;4477610;26;20076;-53
2024/04/13 06:24:01;;;;;;;1.65;0.93;;;23.60;77.90;;;;;;4477877;26;19999;-59
2024/04/13 06:26:04;;;;;;;3.70;1.55;;;23.70;78.00;;;;;;4478047;26;20365;-55
2024/04/13 06:28:06;;;;;;;3.83;1.50;;;23.90;77.60;;;;;;4477975;26;20091;-53
2024/04/13 06:30:08;;;;;;;4.18;2.28;;;24.30;77.30;;;;;;4479394;26;20012;-56
2024/04/13 06:32:09;;;;;;;3.72;1.52;;;24.20;77.10;;;;;;4478921;26;20340;-57
2024/04/13 06:34:12;;;;;;;2.03;1.38;;;24.20;77.40;;;;;;4480333;26;20071;-58
2024/04/13 06:36:13;;;;;;;4.45;1.92;;;24.50;77.10;;;;;;4478591;26;20007;-62
2024/04/13 06:38:18;;;;;;;4.82;1.13;;;24.80;76.40;;;;;;4479645;26;19995;-55
2024/04/13 06:40:19;;;;;;;1.23;1.05;;;25.00;76.10;;;;;;4478669;26;20008;-55
2024/04/13 06:42:20;;;;;;;3.63;1.50;;;25.10;76.00;;;;;;4478889;26;20011;-54
2024/04/13 06:44:21;;;;;;;3.13;1.65;;;25.70;75.50;;;;;;4479113;26;20012;-57
2024/04/13 06:46:23;;;;;;;2.65;1.90;;;26.00;75.00;;;;;;4478882;26;20075;-54
2024/04/13 06:48:24;;;;;;;2.30;1.88;;;26.20;74.80;;;;;;4479795;26;20076;-58
2024/04/13 06:50:25;;;;;;;4.03;1.30;;;26.50;74.40;;;;;;4477314;26;20007;-58
2024/04/13 06:52:27;;;;;;;8.43;1.98;;;26.50;74.10;;;;;;4479076;26;20007;-56
2024/04/13 06:54:28;;;;;;;4.20;1.35;;;27.00;73.90;;;;;;4478094;26;20012;-60
2024/04/13 06:56:30;;;;;;;6.10;1.90;;;27.10;73.50;;;;;;4479374;26;20011;-55
2024/04/13 06:58:31;;;;;;;6.85;1.58;;;27.20;73.20;;;;;;4464254;26;20012;-54
2024/04/13 07:00:33;;;;;;;3.72;1.55;;;27.00;73.10;;;;;;4470944;26;20011;-56
2024/04/13 07:02:34;;;;;;;2.42;1.23;;;26.90;73.30;;;;;;4478089;26;20072;-59
2024/04/13 07:04:35;;;;;;;2.30;1.38;;;26.70;73.30;;;;;;4479031;26;20067;-59
2024/04/13 07:06:36;;;;;;;6.15;1.70;;;26.10;73.50;;;;;;4478579;26;20305;-56
2024/04/13 07:08:38;;;;;;;1.15;1.05;;;25.60;74.20;;;;;;4478709;26;20155;-54
2024/04/13 07:10:39;;;;;;;2.85;1.40;;;25.20;75.00;;;;;;4478050;26;20016;-56
2024/04/13 07:12:41;;;;;;;2.58;1.80;;;25.30;75.20;;;;;;4478107;26;20008;-54
2024/04/13 07:14:42;;;;;;;3.05;1.23;;;25.40;75.20;;;;;;4475829;26;20413;-53
2024/04/13 07:16:44;;;;;;;2.45;1.40;;;24.80;75.20;;;;;;4478229;26;19999;-57
2024/04/13 07:18:46;;;;;;;4.03;2.53;;;24.50;76.40;;;;;;4478583;26;20067;-55
2024/04/13 07:20:48;;;;;;;1.58;1.17;;;24.60;76.60;;;;;;4477234;26;20003;-55
2024/04/13 07:22:49;;;;;;;4.10;1.55;;;24.70;76.40;;;;;;4478861;26;20007;-61
2024/04/13 07:24:50;;;;;;;4.22;1.27;;;24.80;76.10;;;;;;4477495;26;20015;-56
2024/04/13 07:26:51;;;;;;;4.45;1.58;;;24.90;75.80;;;;;;4478743;26;20007;-55
2024/04/13 07:28:52;;;;;;;2.72;1.35;;;24.80;76.10;;;;;;4477895;26;20045;-58
2024/04/13 07:30:54;;;;;;;4.38;1.20;;;24.80;76.00;;;;;;4478437;26;20472;-52
2024/04/13 07:32:55;;;;;;;2.25;1.20;;;25.00;75.70;;;;;;4475124;26;20007;-54
2024/04/13 07:34:56;;;;;;;3.13;1.23;;;24.80;75.70;;;;;;4474530;26;20054;-58
2024/04/13 07:36:58;;;;;;;3.80;0.90;;;24.70;75.60;;;;;;4448365;26;20015;-55
2024/04/13 07:39:00;;;;;;;1.50;0.60;;;24.40;75.60;;;;;;4448810;26;20430;-61
2024/04/13 07:41:01;;;;;;;0.70;0.60;;;23.70;75.40;;;;;;4481475;26;20011;-57
2024/04/13 07:43:02;;;;;;;1.10;0.70;;;23.40;76.20;;;;;;4477359;26;20003;-54
2024/04/13 07:45:04;;;;;;;1.52;1.08;;;23.00;76.80;;;;;;4477362;26;20537;-53
2024/04/13 07:47:05;;;;;;;1.15;0.70;;;22.90;77.10;;;;;;4477466;26;20297;-54
2024/04/13 07:49:07;;;;;;;2.10;0.68;;;22.80;77.30;;;;;;4478700;26;20071;-55
2024/04/13 07:51:08;;;;;;;0.98;0.70;;;22.80;77.50;;;;;;4477168;26;20011;-57
2024/04/13 07:53:09;;;;;;;4.13;1.20;;;23.00;77.30;;;;;;4477899;26;20071;-60
2024/04/13 07:55:10;;;;;;;7.68;1.33;;;22.40;77.60;;;;;;4476466;26;20053;-55
2024/04/13 07:57:12;;;;;;;3.25;1.45;;;22.40;78.10;;;;;;4478655;26;20015;-57
2024/04/13 07:59:13;;;;;;;4.18;1.55;;;22.60;78.30;;;;;;4477633;26;20444;-58
2024/04/13 08:01:14;;;;;;;3.78;1.15;;;22.70;78.30;;;;;;4479100;26;20004;-57
2024/04/13 08:03:16;;;;;;;3.42;0.82;;;22.70;78.10;;;;;;4478057;26;20413;-58
2024/04/13 08:05:17;;;;;;;5.63;1.13;;;22.80;78.20;;;;;;4479060;26;20004;-55
2024/04/13 08:07:19;;;;;;;3.33;1.30;;;22.40;78.50;;;;;;4478083;26;20003;-57
2024/04/13 08:09:20;;;;;;;2.88;1.20;;;22.10;78.70;;;;;;4478426;26;20096;-52
2024/04/13 08:11:21;;;;;;;2.10;1.08;;;22.20;79.10;;;;;;4477449;26;20408;-54
2024/04/13 08:13:22;;;;;;;3.20;1.77;;;22.30;79.10;;;;;;4478251;26;20011;-57
2024/04/13 08:15:24;;;;;;;33.80;5.88;;;22.40;78.70;;;;;;4477602;26;20007;-53
2024/04/13 08:17:26;;;;;;;7.13;1.92;;;22.40;78.40;;;;;;4477367;26;20512;-57
2024/04/13 08:19:27;;;;;;;2.70;0.90;;;22.20;78.50;;;;;;4478675;26;20064;-52
2024/04/13 08:21:29;;;;;;;16.42;2.83;;;22.40;78.50;;;;;;4477928;26;20066;-56
2024/04/13 08:23:30;;;;;;;3.33;0.90;;;22.70;78.50;;;;;;4477713;26;20503;-56
2024/04/13 08:25:32;;;;;;;4.95;0.82;;;22.60;78.30;;;;;;4461879;26;20024;-54
2024/04/13 08:27:35;;;;;;;4.55;1.08;;;22.50;78.20;;;;;;4467592;26;20071;-50
2024/04/13 08:29:37;;;;;;;1.27;1.02;;;22.40;78.20;;;;;;4478284;26;20048;-57
2024/04/13 08:31:38;;;;;;;2.83;0.65;;;22.60;78.40;;;;;;4477838;26;20779;-53
2024/04/13 08:33:40;;;;;;;2.35;1.00;;;22.50;77.80;;;;;;4477834;26;20068;-56
2024/04/13 08:35:41;;;;;;;1.92;1.05;;;22.50;78.40;;;;;;4478646;26;20174;-55
2024/04/13 08:37:45;;;;;;;4.60;1.17;;;22.60;78.20;;;;;;4478241;26;20067;-52
2024/04/13 08:39:46;;;;;;;1.88;1.20;;;22.70;78.40;;;;;;4478942;26;20007;-53
2024/04/13 08:42:06;;;;;;;2.70;1.05;;;23.00;78.10;;;;;;4477369;26;20068;-56
2024/04/13 08:44:08;;;;;;;3.72;1.30;;;23.20;78.30;;;;;;4478691;26;20011;-53
2024/04/13 08:46:09;;;;;;;2.03;1.00;;;23.50;77.80;;;;;;4476027;26;20068;-60
2024/04/13 08:48:11;;;;;;;3.55;0.98;;;23.50;77.20;;;;;;4478623;26;20007;-55
2024/04/13 08:50:13;;;;;;;1.67;1.00;;;23.60;77.20;;;;;;4477662;26;20831;-54
2024/04/13 08:52:17;;;;;;;6.22;1.15;;;23.60;76.60;;;;;;4478300;26;20003;-54
2024/04/13 08:54:18;;;;;;;2.40;0.85;;;23.70;76.30;;;;;;4477805;26;20416;-50
2024/04/13 08:56:20;;;;;;;2.17;0.95;;;23.80;76.30;;;;;;4477467;26;20000;-56
2024/04/13 08:58:22;;;;;;;2.47;1.20;;;23.90;76.20;;;;;;4462526;26;20015;-56
2024/04/13 09:00:24;;;;;;;1.80;1.33;;;24.00;75.60;;;;;;4476654;26;20076;-56
2024/04/13 09:02:35;;;;;;;2.05;1.52;;;24.20;75.60;;;;;;4478337;26;20064;-58
2024/04/13 09:04:37;;;;;;;5.75;2.42;;;24.10;74.80;;;;;;4447989;26;20077;-54
2024/04/13 09:06:42;;;;;;;4.80;2.20;;;23.90;75.30;;;;;;4449312;26;20061;-54
2024/04/13 09:08:49;;;;;;;4.93;2.65;;;23.70;75.90;;;;;;4464438;26;20068;-52
2024/04/13 09:10:53;;;;;;;2.85;1.70;;;23.70;76.00;;;;;;4477720;26;20376;-58
2024/04/13 09:12:54;;;;;;;5.10;2.35;;;23.80;75.30;;;;;;4477842;26;20440;-53
2024/04/13 09:14:57;;;;;;;6.43;1.95;;;23.70;75.10;;;;;;4481445;26;20011;-56
2024/04/13 09:17:00;;;;;;;3.65;2.10;;;23.50;75.20;;;;;;4479543;26;20072;-53
2024/04/13 09:19:01;;;;;;;2.90;1.92;;;23.30;75.50;;;;;;4481844;26;20007;-52
2024/04/13 09:21:03;;;;;;;1.48;1.13;;;23.30;75.80;;;;;;4479441;26;20278;-56
2024/04/13 09:23:05;;;;;;;2.60;1.10;;;23.40;75.30;;;;;;4480678;26;20072;-57
2024/04/13 09:25:08;;;;;;;1.70;1.02;;;23.70;75.10;;;;;;4479531;26;19996;-57
2024/04/13 09:27:23;;;;;;;2.90;1.85;;;23.80;74.90;;;;;;4479212;26;20012;-54
2024/04/13 09:29:28;;;;;;;1.67;0.88;;;24.00;74.30;;;;;;4480775;26;20447;-53
2024/04/13 09:31:29;;;;;;;2.75;1.23;;;24.00;74.10;;;;;;4481689;26;20469;-63
2024/04/13 09:33:30;;;;;;;3.50;1.50;;;24.20;74.30;;;;;;4480754;26;20083;-57
2024/04/13 09:35:32;;;;;;;2.50;0.80;;;24.10;74.10;;;;;;4480365;26;20135;-57
2024/04/13 09:37:33;;;;;;;2.63;0.73;;;24.00;74.10;;;;;;4478826;26;20000;-56
2024/04/13 09:39:34;;;;;;;1.33;0.57;;;24.20;74.10;;;;;;4480734;26;20003;-55
2024/04/13 09:41:38;;;;;;;3.13;1.27;;;24.10;73.50;;;;;;4481124;26;20072;-57
2024/04/13 09:43:40;;;;;;;4.13;1.25;;;24.10;73.30;;;;;;4479977;26;20042;-52
2024/04/13 09:45:41;;;;;;;3.17;0.80;;;23.80;73.50;;;;;;4481169;26;20080;-56
2024/04/13 09:47:42;;;;;;;2.90;0.70;;;23.80;73.70;;;;;;4479737;26;20144;-52
2024/04/13 09:49:49;;;;;;;3.53;0.98;;;23.70;73.30;;;;;;4481013;26;20080;-57
2024/04/13 09:51:50;;;;;;;2.53;0.70;;;23.60;72.00;;;;;;4479481;26;20068;-55
2024/04/13 09:53:53;;;;;;;6.80;1.70;;;23.60;73.00;;;;;;4480294;26;20011;-55
2024/04/13 09:55:54;;;;;;;3.90;1.05;;;23.60;72.90;;;;;;4479692;26;20003;-60
2024/04/13 09:57:57;;;;;;;1.20;0.88;;;23.60;72.80;;;;;;4480965;26;20049;-55
2024/04/13 10:00:00;;;;;;;7.85;1.20;;;23.60;72.80;;;;;;4479427;26;20496;-56
2024/04/13 10:02:01;;;;;;;6.07;1.02;;;23.60;72.90;;;;;;4481316;26;20440;-53
2024/04/13 10:04:02;;;;;;;3.67;0.77;;;23.60;73.70;;;;;;4478937;26;20405;-54
2024/04/13 10:06:09;;;;;;;1.40;0.57;;;23.50;72.90;;;;;;4480098;26;20401;-59
2024/04/13 10:08:10;;;;;;;1.70;0.80;;;23.50;73.50;;;;;;4478549;26;20297;-56
2024/04/13 10:10:13;;;;;;;1.85;0.50;;;23.40;73.70;;;;;;4479818;26;20107;-53
2024/04/13 10:12:21;;;;;;;1.13;0.98;;;23.60;73.70;;;;;;4479026;26;20045;-51
2024/04/13 10:14:24;;;;;;;1.23;0.70;;;23.70;73.80;;;;;;4479818;26;20332;-56
2024/04/13 10:16:27;;;;;;;3.45;0.60;;;23.80;73.80;;;;;;4479743;26;20004;-58
2024/04/13 10:18:29;;;;;;;12.20;1.98;;;23.70;73.40;;;;;;4479290;26;20071;-57
2024/04/13 10:20:30;;;;;;;10.98;1.98;;;23.30;73.90;;;;;;4479252;26;20143;-55
2024/04/13 10:22:33;;;;;;;2.70;1.30;;;23.10;74.60;;;;;;4477755;26;20012;-53
2024/04/13 10:24:34;;;;;;;1.30;0.65;;;23.10;75.10;;;;;;4476392;26;20075;-53
2024/04/13 10:26:35;;;;;;;2.85;0.73;;;23.30;75.10;;;;;;4478408;26;20015;-56
2024/04/13 10:28:40;;;;;;;3.13;0.88;;;23.40;74.90;;;;;;4480196;26;20012;-57
2024/04/13 10:30:47;;;;;;;25.45;3.45;;;23.40;75.10;;;;;;4478714;26;20869;-55
2024/04/13 10:32:48;;;;;;;2.47;1.00;;;23.30;75.20;;;;;;4480521;26;20000;-54
2024/04/13 10:34:50;;;;;;;4.00;0.77;;;23.10;75.50;;;;;;4478486;26;20008;-57